sensor_id;sensor_type;location;lat;lon;timestamp;P1;durP1;ratioP1;P2;durP2;ratioP2
50932;SDS011;36921;49.006;9.292;2023-04-06T00:00:33;14.07;;;7.13;;
50932;SDS011;36921;49.006;9.292;2023-04-06T00:02:59;11.55;;;6.97;;
50932;SDS011;36921;49.006;9.292;2023-04-06T00:05:24;12.68;;;6.50;;
50932;SDS011;36921;49.006;9.292;2023-04-06T00:07:50;10.57;;;6.10;;
50932;SDS011;36921;49.006;9.292;2023-04-06T00:10:16;11.73;;;6.88;;
50932;SDS011;36921;49.006;9.292;2023-04-06T00:12:41;12.00;;;6.75;;
50932;SDS011;36921;49.006;9.292;2023-04-06T00:15:07;13.10;;;7.15;;
50932;SDS011;36921;49.006;9.292;2023-04-06T00:17:32;13.85;;;7.30;;
50932;SDS011;36921;49.006;9.292;2023-04-06T00:19:58;15.70;;;7.53;;
50932;SDS011;36921;49.006;9.292;2023-04-06T00:22:23;13.63;;;8.05;;
50932;SDS011;36921;49.006;9.292;2023-04-06T00:24:48;15.25;;;8.45;;
50932;SDS011;36921;49.006;9.292;2023-04-06T00:27:13;16.25;;;7.25;;
50932;SDS011;36921;49.006;9.292;2023-04-06T00:29:39;14.13;;;7.13;;
50932;SDS011;36921;49.006;9.292;2023-04-06T00:32:05;14.30;;;8.35;;
50932;SDS011;36921;49.006;9.292;2023-04-06T00:34:30;21.25;;;8.32;;
50932;SDS011;36921;49.006;9.292;2023-04-06T00:37:03;15.13;;;7.40;;
50932;SDS011;36921;49.006;9.292;2023-04-06T00:39:28;18.33;;;8.38;;
50932;SDS011;36921;49.006;9.292;2023-04-06T00:41:53;15.98;;;8.60;;
50932;SDS011;36921;49.006;9.292;2023-04-06T00:44:20;11.93;;;7.25;;
50932;SDS011;36921;49.006;9.292;2023-04-06T00:46:46;11.70;;;6.72;;
50932;SDS011;36921;49.006;9.292;2023-04-06T00:49:11;13.02;;;7.40;;
50932;SDS011;36921;49.006;9.292;2023-04-06T00:51:37;16.98;;;7.03;;
50932;SDS011;36921;49.006;9.292;2023-04-06T00:54:02;13.10;;;7.20;;
50932;SDS011;36921;49.006;9.292;2023-04-06T00:56:28;17.90;;;8.15;;
50932;SDS011;36921;49.006;9.292;2023-04-06T00:58:53;18.33;;;8.15;;
50932;SDS011;36921;49.006;9.292;2023-04-06T01:01:18;16.13;;;9.40;;
50932;SDS011;36921;49.006;9.292;2023-04-06T01:03:44;16.63;;;8.07;;
50932;SDS011;36921;49.006;9.292;2023-04-06T01:06:13;16.52;;;8.48;;
50932;SDS011;36921;49.006;9.292;2023-04-06T01:08:38;13.95;;;7.13;;
50932;SDS011;36921;49.006;9.292;2023-04-06T01:11:04;11.27;;;6.60;;
50932;SDS011;36921;49.006;9.292;2023-04-06T01:13:29;12.07;;;6.93;;
50932;SDS011;36921;49.006;9.292;2023-04-06T01:15:55;15.10;;;7.60;;
50932;SDS011;36921;49.006;9.292;2023-04-06T01:18:25;19.10;;;8.38;;
50932;SDS011;36921;49.006;9.292;2023-04-06T01:20:54;15.40;;;7.35;;
50932;SDS011;36921;49.006;9.292;2023-04-06T01:23:20;13.98;;;7.72;;
50932;SDS011;36921;49.006;9.292;2023-04-06T01:25:45;15.25;;;7.90;;
50932;SDS011;36921;49.006;9.292;2023-04-06T01:28:10;13.63;;;7.78;;
50932;SDS011;36921;49.006;9.292;2023-04-06T01:30:36;14.40;;;7.65;;
50932;SDS011;36921;49.006;9.292;2023-04-06T01:33:01;16.63;;;8.27;;
50932;SDS011;36921;49.006;9.292;2023-04-06T01:35:27;15.63;;;7.50;;
50932;SDS011;36921;49.006;9.292;2023-04-06T01:37:53;12.95;;;7.60;;
50932;SDS011;36921;49.006;9.292;2023-04-06T01:40:18;16.55;;;7.95;;
50932;SDS011;36921;49.006;9.292;2023-04-06T01:42:43;17.83;;;7.57;;
50932;SDS011;36921;49.006;9.292;2023-04-06T01:45:09;14.48;;;7.63;;
50932;SDS011;36921;49.006;9.292;2023-04-06T01:47:34;19.15;;;7.95;;
50932;SDS011;36921;49.006;9.292;2023-04-06T01:50:00;14.43;;;7.45;;
50932;SDS011;36921;49.006;9.292;2023-04-06T01:52:26;17.23;;;7.65;;
50932;SDS011;36921;49.006;9.292;2023-04-06T01:54:51;14.60;;;7.55;;
50932;SDS011;36921;49.006;9.292;2023-04-06T01:57:17;15.30;;;7.93;;
50932;SDS011;36921;49.006;9.292;2023-04-06T01:59:42;14.43;;;7.47;;
50932;SDS011;36921;49.006;9.292;2023-04-06T02:02:07;12.63;;;6.88;;
50932;SDS011;36921;49.006;9.292;2023-04-06T02:04:33;13.98;;;7.47;;
50932;SDS011;36921;49.006;9.292;2023-04-06T02:06:58;17.27;;;7.30;;
50932;SDS011;36921;49.006;9.292;2023-04-06T02:09:24;18.55;;;7.35;;
50932;SDS011;36921;49.006;9.292;2023-04-06T02:11:49;15.65;;;8.18;;
50932;SDS011;36921;49.006;9.292;2023-04-06T02:14:14;16.60;;;7.90;;
50932;SDS011;36921;49.006;9.292;2023-04-06T02:16:40;17.20;;;8.52;;
50932;SDS011;36921;49.006;9.292;2023-04-06T02:19:06;15.55;;;7.38;;
50932;SDS011;36921;49.006;9.292;2023-04-06T02:21:31;14.45;;;7.00;;
50932;SDS011;36921;49.006;9.292;2023-04-06T02:23:56;16.55;;;7.55;;
50932;SDS011;36921;49.006;9.292;2023-04-06T02:26:21;14.45;;;7.35;;
50932;SDS011;36921;49.006;9.292;2023-04-06T02:28:47;14.00;;;7.97;;
50932;SDS011;36921;49.006;9.292;2023-04-06T02:31:12;17.25;;;8.35;;
50932;SDS011;36921;49.006;9.292;2023-04-06T02:33:40;15.35;;;8.02;;
50932;SDS011;36921;49.006;9.292;2023-04-06T02:36:05;17.50;;;8.45;;
50932;SDS011;36921;49.006;9.292;2023-04-06T02:38:31;15.30;;;8.18;;
50932;SDS011;36921;49.006;9.292;2023-04-06T02:40:56;16.75;;;8.05;;
50932;SDS011;36921;49.006;9.292;2023-04-06T02:43:21;17.02;;;8.52;;
50932;SDS011;36921;49.006;9.292;2023-04-06T02:45:47;18.70;;;8.98;;
50932;SDS011;36921;49.006;9.292;2023-04-06T02:48:12;20.17;;;10.27;;
50932;SDS011;36921;49.006;9.292;2023-04-06T02:50:37;19.60;;;9.57;;
50932;SDS011;36921;49.006;9.292;2023-04-06T02:53:02;21.98;;;10.07;;
50932;SDS011;36921;49.006;9.292;2023-04-06T02:55:28;17.08;;;8.77;;
50932;SDS011;36921;49.006;9.292;2023-04-06T02:57:53;25.15;;;10.98;;
50932;SDS011;36921;49.006;9.292;2023-04-06T03:00:18;20.10;;;10.10;;
50932;SDS011;36921;49.006;9.292;2023-04-06T03:02:44;18.25;;;10.18;;
50932;SDS011;36921;49.006;9.292;2023-04-06T03:05:10;16.80;;;9.88;;
50932;SDS011;36921;49.006;9.292;2023-04-06T03:07:35;18.52;;;9.65;;
50932;SDS011;36921;49.006;9.292;2023-04-06T03:10:00;16.75;;;8.45;;
50932;SDS011;36921;49.006;9.292;2023-04-06T03:12:26;14.68;;;7.47;;
50932;SDS011;36921;49.006;9.292;2023-04-06T03:14:51;17.02;;;8.05;;
50932;SDS011;36921;49.006;9.292;2023-04-06T03:17:16;18.67;;;9.15;;
50932;SDS011;36921;49.006;9.292;2023-04-06T03:22:09;16.45;;;8.02;;
50932;SDS011;36921;49.006;9.292;2023-04-06T03:24:35;17.73;;;7.82;;
50932;SDS011;36921;49.006;9.292;2023-04-06T03:27:02;18.05;;;8.98;;
50932;SDS011;36921;49.006;9.292;2023-04-06T03:29:28;17.25;;;9.13;;
50932;SDS011;36921;49.006;9.292;2023-04-06T03:31:53;19.58;;;10.13;;
50932;SDS011;36921;49.006;9.292;2023-04-06T03:34:19;18.92;;;10.32;;
50932;SDS011;36921;49.006;9.292;2023-04-06T03:36:45;28.83;;;12.27;;
50932;SDS011;36921;49.006;9.292;2023-04-06T03:39:10;25.80;;;10.85;;
50932;SDS011;36921;49.006;9.292;2023-04-06T03:41:35;18.42;;;9.82;;
50932;SDS011;36921;49.006;9.292;2023-04-06T03:44:01;18.30;;;9.80;;
50932;SDS011;36921;49.006;9.292;2023-04-06T03:46:26;17.13;;;9.13;;
50932;SDS011;36921;49.006;9.292;2023-04-06T03:48:52;16.27;;;8.65;;
50932;SDS011;36921;49.006;9.292;2023-04-06T03:51:17;17.70;;;9.38;;
50932;SDS011;36921;49.006;9.292;2023-04-06T03:53:42;18.52;;;9.95;;
50932;SDS011;36921;49.006;9.292;2023-04-06T03:56:08;19.45;;;8.68;;
50932;SDS011;36921;49.006;9.292;2023-04-06T03:58:33;21.15;;;9.75;;
50932;SDS011;36921;49.006;9.292;2023-04-06T04:00:58;14.93;;;8.82;;
50932;SDS011;36921;49.006;9.292;2023-04-06T04:03:24;17.65;;;9.20;;
50932;SDS011;36921;49.006;9.292;2023-04-06T04:05:52;15.52;;;8.60;;
50932;SDS011;36921;49.006;9.292;2023-04-06T04:08:17;19.52;;;8.77;;
50932;SDS011;36921;49.006;9.292;2023-04-06T04:10:42;19.05;;;9.73;;
50932;SDS011;36921;49.006;9.292;2023-04-06T04:13:08;18.40;;;9.32;;
50932;SDS011;36921;49.006;9.292;2023-04-06T04:15:33;21.08;;;9.73;;
50932;SDS011;36921;49.006;9.292;2023-04-06T04:17:59;18.52;;;10.32;;
50932;SDS011;36921;49.006;9.292;2023-04-06T04:20:24;21.73;;;9.57;;
50932;SDS011;36921;49.006;9.292;2023-04-06T04:22:50;20.35;;;9.90;;
50932;SDS011;36921;49.006;9.292;2023-04-06T04:25:15;19.05;;;9.45;;
50932;SDS011;36921;49.006;9.292;2023-04-06T04:27:40;18.08;;;8.93;;
50932;SDS011;36921;49.006;9.292;2023-04-06T04:30:06;17.95;;;8.88;;
50932;SDS011;36921;49.006;9.292;2023-04-06T04:32:32;22.35;;;10.07;;
50932;SDS011;36921;49.006;9.292;2023-04-06T04:34:57;28.10;;;10.60;;
50932;SDS011;36921;49.006;9.292;2023-04-06T04:37:22;24.02;;;10.77;;
50932;SDS011;36921;49.006;9.292;2023-04-06T04:39:48;25.83;;;12.10;;
50932;SDS011;36921;49.006;9.292;2023-04-06T04:42:13;21.25;;;8.98;;
50932;SDS011;36921;49.006;9.292;2023-04-06T04:44:39;22.63;;;10.80;;
50932;SDS011;36921;49.006;9.292;2023-04-06T04:47:05;21.80;;;11.70;;
50932;SDS011;36921;49.006;9.292;2023-04-06T04:49:32;20.65;;;10.30;;
50932;SDS011;36921;49.006;9.292;2023-04-06T04:51:58;22.10;;;10.93;;
50932;SDS011;36921;49.006;9.292;2023-04-06T04:54:25;20.45;;;9.85;;
50932;SDS011;36921;49.006;9.292;2023-04-06T04:56:51;20.40;;;10.73;;
50932;SDS011;36921;49.006;9.292;2023-04-06T04:59:17;22.02;;;10.77;;
50932;SDS011;36921;49.006;9.292;2023-04-06T05:01:42;22.67;;;10.40;;
50932;SDS011;36921;49.006;9.292;2023-04-06T05:04:08;18.52;;;9.68;;
50932;SDS011;36921;49.006;9.292;2023-04-06T05:06:33;22.50;;;10.15;;
50932;SDS011;36921;49.006;9.292;2023-04-06T05:08:58;24.85;;;9.88;;
50932;SDS011;36921;49.006;9.292;2023-04-06T05:11:24;25.17;;;10.60;;
50932;SDS011;36921;49.006;9.292;2023-04-06T05:13:50;19.73;;;11.02;;
50932;SDS011;36921;49.006;9.292;2023-04-06T05:16:16;20.20;;;11.73;;
50932;SDS011;36921;49.006;9.292;2023-04-06T05:18:41;18.92;;;10.80;;
50932;SDS011;36921;49.006;9.292;2023-04-06T05:21:07;21.58;;;11.48;;
50932;SDS011;36921;49.006;9.292;2023-04-06T05:23:32;19.02;;;10.73;;
50932;SDS011;36921;49.006;9.292;2023-04-06T05:25:58;34.75;;;10.32;;
50932;SDS011;36921;49.006;9.292;2023-04-06T05:28:23;17.00;;;9.30;;
50932;SDS011;36921;49.006;9.292;2023-04-06T05:30:49;20.10;;;9.60;;
50932;SDS011;36921;49.006;9.292;2023-04-06T05:33:15;23.48;;;10.88;;
50932;SDS011;36921;49.006;9.292;2023-04-06T05:35:41;32.35;;;13.43;;
50932;SDS011;36921;49.006;9.292;2023-04-06T05:38:07;16.10;;;8.93;;
50932;SDS011;36921;49.006;9.292;2023-04-06T05:40:34;15.27;;;8.10;;
50932;SDS011;36921;49.006;9.292;2023-04-06T05:42:59;13.23;;;8.00;;
50932;SDS011;36921;49.006;9.292;2023-04-06T05:45:25;13.15;;;8.52;;
50932;SDS011;36921;49.006;9.292;2023-04-06T05:47:51;12.68;;;8.07;;
50932;SDS011;36921;49.006;9.292;2023-04-06T05:50:16;15.80;;;7.15;;
50932;SDS011;36921;49.006;9.292;2023-04-06T05:52:42;18.92;;;7.85;;
50932;SDS011;36921;49.006;9.292;2023-04-06T05:55:08;12.23;;;6.82;;
50932;SDS011;36921;49.006;9.292;2023-04-06T05:57:35;14.13;;;7.00;;
50932;SDS011;36921;49.006;9.292;2023-04-06T06:00:00;13.40;;;7.22;;
50932;SDS011;36921;49.006;9.292;2023-04-06T06:02:26;13.45;;;7.53;;
50932;SDS011;36921;49.006;9.292;2023-04-06T06:04:51;14.43;;;8.27;;
50932;SDS011;36921;49.006;9.292;2023-04-06T06:07:16;18.08;;;9.68;;
50932;SDS011;36921;49.006;9.292;2023-04-06T06:09:42;16.83;;;9.50;;
50932;SDS011;36921;49.006;9.292;2023-04-06T06:12:08;21.58;;;10.70;;
50932;SDS011;36921;49.006;9.292;2023-04-06T06:14:33;12.25;;;7.80;;
50932;SDS011;36921;49.006;9.292;2023-04-06T06:16:59;13.02;;;8.35;;
50932;SDS011;36921;49.006;9.292;2023-04-06T06:19:24;24.25;;;10.65;;
50932;SDS011;36921;49.006;9.292;2023-04-06T06:21:50;18.48;;;7.93;;
50932;SDS011;36921;49.006;9.292;2023-04-06T06:24:15;14.85;;;8.20;;
50932;SDS011;36921;49.006;9.292;2023-04-06T06:26:41;20.52;;;8.95;;
50932;SDS011;36921;49.006;9.292;2023-04-06T06:29:06;18.83;;;7.90;;
50932;SDS011;36921;49.006;9.292;2023-04-06T06:31:32;18.63;;;8.50;;
50932;SDS011;36921;49.006;9.292;2023-04-06T06:33:57;18.75;;;8.73;;
50932;SDS011;36921;49.006;9.292;2023-04-06T06:36:23;14.32;;;8.13;;
50932;SDS011;36921;49.006;9.292;2023-04-06T06:38:48;13.88;;;7.57;;
50932;SDS011;36921;49.006;9.292;2023-04-06T06:41:14;15.40;;;8.57;;
50932;SDS011;36921;49.006;9.292;2023-04-06T06:43:40;16.45;;;8.20;;
50932;SDS011;36921;49.006;9.292;2023-04-06T06:46:06;11.48;;;6.85;;
50932;SDS011;36921;49.006;9.292;2023-04-06T06:48:31;11.85;;;6.70;;
50932;SDS011;36921;49.006;9.292;2023-04-06T06:50:57;11.88;;;7.10;;
50932;SDS011;36921;49.006;9.292;2023-04-06T06:53:23;8.23;;;6.35;;
50932;SDS011;36921;49.006;9.292;2023-04-06T06:55:52;9.55;;;6.90;;
50932;SDS011;36921;49.006;9.292;2023-04-06T06:58:18;12.27;;;7.50;;
50932;SDS011;36921;49.006;9.292;2023-04-06T07:00:55;11.15;;;6.20;;
50932;SDS011;36921;49.006;9.292;2023-04-06T07:03:21;9.43;;;6.47;;
50932;SDS011;36921;49.006;9.292;2023-04-06T07:11:12;8.52;;;6.43;;
50932;SDS011;36921;49.006;9.292;2023-04-06T07:13:37;9.80;;;6.80;;
50932;SDS011;36921;49.006;9.292;2023-04-06T07:16:02;9.93;;;7.00;;
50932;SDS011;36921;49.006;9.292;2023-04-06T07:18:28;12.00;;;7.03;;
50932;SDS011;36921;49.006;9.292;2023-04-06T07:20:53;10.00;;;7.00;;
50932;SDS011;36921;49.006;9.292;2023-04-06T07:23:19;12.68;;;6.60;;
50932;SDS011;36921;49.006;9.292;2023-04-06T07:25:44;10.18;;;6.50;;
50932;SDS011;36921;49.006;9.292;2023-04-06T07:28:10;9.15;;;5.95;;
50932;SDS011;36921;49.006;9.292;2023-04-06T07:30:36;8.98;;;6.40;;
50932;SDS011;36921;49.006;9.292;2023-04-06T07:33:02;8.52;;;6.05;;
50932;SDS011;36921;49.006;9.292;2023-04-06T07:35:27;10.57;;;6.43;;
50932;SDS011;36921;49.006;9.292;2023-04-06T07:37:55;10.95;;;6.63;;
50932;SDS011;36921;49.006;9.292;2023-04-06T07:40:20;13.38;;;6.90;;
50932;SDS011;36921;49.006;9.292;2023-04-06T07:42:46;12.27;;;6.40;;
50932;SDS011;36921;49.006;9.292;2023-04-06T07:45:11;8.27;;;6.40;;
50932;SDS011;36921;49.006;9.292;2023-04-06T07:47:37;9.32;;;6.22;;
50932;SDS011;36921;49.006;9.292;2023-04-06T07:50:02;9.43;;;6.68;;
50932;SDS011;36921;49.006;9.292;2023-04-06T07:52:28;7.90;;;5.90;;
50932;SDS011;36921;49.006;9.292;2023-04-06T07:54:53;9.07;;;6.45;;
50932;SDS011;36921;49.006;9.292;2023-04-06T07:57:18;12.00;;;6.93;;
50932;SDS011;36921;49.006;9.292;2023-04-06T07:59:44;7.35;;;5.90;;
50932;SDS011;36921;49.006;9.292;2023-04-06T08:02:09;10.18;;;6.45;;
50932;SDS011;36921;49.006;9.292;2023-04-06T08:04:35;9.27;;;5.30;;
50932;SDS011;36921;49.006;9.292;2023-04-06T08:07:00;8.98;;;6.35;;
50932;SDS011;36921;49.006;9.292;2023-04-06T08:09:26;8.32;;;6.20;;
50932;SDS011;36921;49.006;9.292;2023-04-06T08:11:51;10.55;;;6.60;;
50932;SDS011;36921;49.006;9.292;2023-04-06T08:14:17;10.15;;;7.18;;
50932;SDS011;36921;49.006;9.292;2023-04-06T08:16:42;10.10;;;6.90;;
50932;SDS011;36921;49.006;9.292;2023-04-06T08:19:07;10.82;;;7.00;;
50932;SDS011;36921;49.006;9.292;2023-04-06T08:21:34;9.27;;;6.45;;
50932;SDS011;36921;49.006;9.292;2023-04-06T08:24:00;10.02;;;7.40;;
50932;SDS011;36921;49.006;9.292;2023-04-06T08:26:26;12.43;;;7.68;;
50932;SDS011;36921;49.006;9.292;2023-04-06T08:28:52;9.77;;;6.85;;
50932;SDS011;36921;49.006;9.292;2023-04-06T08:31:17;12.63;;;7.22;;
50932;SDS011;36921;49.006;9.292;2023-04-06T08:33:42;13.18;;;7.70;;
50932;SDS011;36921;49.006;9.292;2023-04-06T08:36:11;10.80;;;7.53;;
50932;SDS011;36921;49.006;9.292;2023-04-06T08:38:38;12.07;;;7.10;;
50932;SDS011;36921;49.006;9.292;2023-04-06T08:41:06;14.13;;;7.30;;
50932;SDS011;36921;49.006;9.292;2023-04-06T08:44:03;13.80;;;6.85;;
50932;SDS011;36921;49.006;9.292;2023-04-06T08:46:29;14.63;;;7.55;;
50932;SDS011;36921;49.006;9.292;2023-04-06T08:49:01;10.52;;;7.25;;
50932;SDS011;36921;49.006;9.292;2023-04-06T08:51:28;11.45;;;7.38;;
50932;SDS011;36921;49.006;9.292;2023-04-06T08:53:55;11.40;;;7.30;;
50932;SDS011;36921;49.006;9.292;2023-04-06T08:56:26;12.23;;;7.40;;
50932;SDS011;36921;49.006;9.292;2023-04-06T08:58:52;15.30;;;7.85;;
50932;SDS011;36921;49.006;9.292;2023-04-06T09:01:26;8.73;;;6.53;;
50932;SDS011;36921;49.006;9.292;2023-04-06T09:03:55;11.98;;;7.47;;
50932;SDS011;36921;49.006;9.292;2023-04-06T09:06:22;12.98;;;6.60;;
50932;SDS011;36921;49.006;9.292;2023-04-06T09:08:48;10.38;;;6.85;;
50932;SDS011;36921;49.006;9.292;2023-04-06T09:11:13;13.77;;;7.35;;
50932;SDS011;36921;49.006;9.292;2023-04-06T09:16:11;10.13;;;6.35;;
50932;SDS011;36921;49.006;9.292;2023-04-06T09:18:36;9.98;;;6.55;;
50932;SDS011;36921;49.006;9.292;2023-04-06T09:21:04;8.95;;;6.50;;
50932;SDS011;36921;49.006;9.292;2023-04-06T09:23:30;8.38;;;6.20;;
50932;SDS011;36921;49.006;9.292;2023-04-06T09:26:06;8.20;;;6.53;;
50932;SDS011;36921;49.006;9.292;2023-04-06T09:31:16;13.40;;;6.30;;
50932;SDS011;36921;49.006;9.292;2023-04-06T09:33:46;7.53;;;6.07;;
50932;SDS011;36921;49.006;9.292;2023-04-06T09:36:12;9.18;;;6.13;;
50932;SDS011;36921;49.006;9.292;2023-04-06T09:38:51;10.27;;;6.10;;
50932;SDS011;36921;49.006;9.292;2023-04-06T09:41:23;10.55;;;5.70;;
50932;SDS011;36921;49.006;9.292;2023-04-06T09:44:13;8.85;;;6.05;;
50932;SDS011;36921;49.006;9.292;2023-04-06T09:46:40;9.50;;;5.63;;
50932;SDS011;36921;49.006;9.292;2023-04-06T09:49:07;10.35;;;5.80;;
50932;SDS011;36921;49.006;9.292;2023-04-06T09:51:37;10.10;;;6.50;;
50932;SDS011;36921;49.006;9.292;2023-04-06T09:54:06;9.88;;;6.30;;
50932;SDS011;36921;49.006;9.292;2023-04-06T09:56:45;8.70;;;6.32;;
50932;SDS011;36921;49.006;9.292;2023-04-06T09:59:18;9.18;;;6.20;;
50932;SDS011;36921;49.006;9.292;2023-04-06T10:01:51;9.65;;;6.32;;
50932;SDS011;36921;49.006;9.292;2023-04-06T10:07:11;10.18;;;6.40;;
50932;SDS011;36921;49.006;9.292;2023-04-06T10:09:38;9.85;;;6.20;;
50932;SDS011;36921;49.006;9.292;2023-04-06T10:12:06;10.77;;;6.03;;
50932;SDS011;36921;49.006;9.292;2023-04-06T10:14:35;9.68;;;6.00;;
50932;SDS011;36921;49.006;9.292;2023-04-06T10:17:03;9.98;;;6.90;;
50932;SDS011;36921;49.006;9.292;2023-04-06T10:19:35;8.98;;;6.05;;
50932;SDS011;36921;49.006;9.292;2023-04-06T10:22:06;8.82;;;5.90;;
50932;SDS011;36921;49.006;9.292;2023-04-06T10:27:01;9.70;;;5.55;;
50932;SDS011;36921;49.006;9.292;2023-04-06T10:29:27;8.15;;;5.18;;
50932;SDS011;36921;49.006;9.292;2023-04-06T10:31:52;9.27;;;6.07;;
50932;SDS011;36921;49.006;9.292;2023-04-06T10:34:20;9.50;;;5.82;;
50932;SDS011;36921;49.006;9.292;2023-04-06T10:36:45;10.95;;;6.53;;
50932;SDS011;36921;49.006;9.292;2023-04-06T10:39:11;9.68;;;6.78;;
50932;SDS011;36921;49.006;9.292;2023-04-06T10:41:41;9.70;;;6.55;;
50932;SDS011;36921;49.006;9.292;2023-04-06T10:44:07;11.52;;;6.85;;
50932;SDS011;36921;49.006;9.292;2023-04-06T10:46:41;13.75;;;6.40;;
50932;SDS011;36921;49.006;9.292;2023-04-06T10:49:17;9.38;;;6.88;;
50932;SDS011;36921;49.006;9.292;2023-04-06T10:51:43;9.77;;;6.85;;
50932;SDS011;36921;49.006;9.292;2023-04-06T10:54:08;9.23;;;6.28;;
50932;SDS011;36921;49.006;9.292;2023-04-06T10:56:36;10.50;;;6.43;;
50932;SDS011;36921;49.006;9.292;2023-04-06T10:59:03;7.75;;;5.70;;
50932;SDS011;36921;49.006;9.292;2023-04-06T11:01:28;10.57;;;5.90;;
50932;SDS011;36921;49.006;9.292;2023-04-06T11:03:55;7.13;;;5.95;;
50932;SDS011;36921;49.006;9.292;2023-04-06T11:06:23;8.60;;;5.90;;
50932;SDS011;36921;49.006;9.292;2023-04-06T11:08:54;7.70;;;5.53;;
50932;SDS011;36921;49.006;9.292;2023-04-06T11:11:21;8.60;;;5.15;;
50932;SDS011;36921;49.006;9.292;2023-04-06T11:13:52;6.88;;;5.68;;
50932;SDS011;36921;49.006;9.292;2023-04-06T11:16:20;6.30;;;5.35;;
50932;SDS011;36921;49.006;9.292;2023-04-06T11:26:44;7.95;;;6.05;;
50932;SDS011;36921;49.006;9.292;2023-04-06T11:29:14;9.55;;;7.07;;
50932;SDS011;36921;49.006;9.292;2023-04-06T11:32:03;8.80;;;6.80;;
50932;SDS011;36921;49.006;9.292;2023-04-06T11:34:28;9.45;;;6.47;;
50932;SDS011;36921;49.006;9.292;2023-04-06T11:36:59;8.10;;;6.15;;
50932;SDS011;36921;49.006;9.292;2023-04-06T11:39:32;10.93;;;6.30;;
50932;SDS011;36921;49.006;9.292;2023-04-06T11:42:02;10.02;;;6.53;;
50932;SDS011;36921;49.006;9.292;2023-04-06T11:46:56;9.05;;;5.50;;
50932;SDS011;36921;49.006;9.292;2023-04-06T11:49:22;8.90;;;6.13;;
50932;SDS011;36921;49.006;9.292;2023-04-06T11:51:51;8.68;;;6.10;;
50932;SDS011;36921;49.006;9.292;2023-04-06T11:54:16;7.85;;;6.15;;
50932;SDS011;36921;49.006;9.292;2023-04-06T11:56:41;8.27;;;6.05;;
50932;SDS011;36921;49.006;9.292;2023-04-06T11:59:11;9.82;;;5.68;;
50932;SDS011;36921;49.006;9.292;2023-04-06T12:01:44;10.02;;;7.45;;
50932;SDS011;36921;49.006;9.292;2023-04-06T12:04:10;9.55;;;6.75;;
50932;SDS011;36921;49.006;9.292;2023-04-06T12:06:35;9.30;;;6.85;;
50932;SDS011;36921;49.006;9.292;2023-04-06T12:09:00;8.95;;;6.40;;
50932;SDS011;36921;49.006;9.292;2023-04-06T12:11:26;13.50;;;7.30;;
50932;SDS011;36921;49.006;9.292;2023-04-06T12:13:51;10.48;;;6.72;;
50932;SDS011;36921;49.006;9.292;2023-04-06T12:16:16;13.05;;;7.63;;
50932;SDS011;36921;49.006;9.292;2023-04-06T12:18:44;10.90;;;6.75;;
50932;SDS011;36921;49.006;9.292;2023-04-06T12:21:09;14.45;;;7.20;;
50932;SDS011;36921;49.006;9.292;2023-04-06T12:23:34;13.40;;;7.35;;
50932;SDS011;36921;49.006;9.292;2023-04-06T12:26:00;11.18;;;6.63;;
50932;SDS011;36921;49.006;9.292;2023-04-06T12:28:26;10.32;;;7.15;;
50932;SDS011;36921;49.006;9.292;2023-04-06T12:30:52;10.18;;;7.00;;
50932;SDS011;36921;49.006;9.292;2023-04-06T12:33:18;11.57;;;6.60;;
50932;SDS011;36921;49.006;9.292;2023-04-06T12:35:43;11.25;;;5.95;;
50932;SDS011;36921;49.006;9.292;2023-04-06T12:38:08;12.35;;;6.82;;
50932;SDS011;36921;49.006;9.292;2023-04-06T12:40:37;11.95;;;6.60;;
50932;SDS011;36921;49.006;9.292;2023-04-06T12:43:03;11.15;;;7.18;;
50932;SDS011;36921;49.006;9.292;2023-04-06T12:45:30;8.18;;;6.18;;
50932;SDS011;36921;49.006;9.292;2023-04-06T12:47:55;8.30;;;5.90;;
50932;SDS011;36921;49.006;9.292;2023-04-06T12:50:21;6.50;;;5.03;;
50932;SDS011;36921;49.006;9.292;2023-04-06T12:52:46;8.00;;;5.57;;
50932;SDS011;36921;49.006;9.292;2023-04-06T12:55:12;7.20;;;5.53;;
50932;SDS011;36921;49.006;9.292;2023-04-06T12:57:37;8.43;;;5.68;;
50932;SDS011;36921;49.006;9.292;2023-04-06T13:00:03;8.43;;;5.50;;
50932;SDS011;36921;49.006;9.292;2023-04-06T13:02:30;7.00;;;5.75;;
50932;SDS011;36921;49.006;9.292;2023-04-06T13:04:55;12.05;;;6.32;;
50932;SDS011;36921;49.006;9.292;2023-04-06T13:07:21;9.38;;;5.65;;
50932;SDS011;36921;49.006;9.292;2023-04-06T13:09:46;9.75;;;6.05;;
50932;SDS011;36921;49.006;9.292;2023-04-06T13:12:14;9.13;;;6.25;;
50932;SDS011;36921;49.006;9.292;2023-04-06T13:14:39;8.73;;;6.15;;
50932;SDS011;36921;49.006;9.292;2023-04-06T13:17:05;8.57;;;6.07;;
50932;SDS011;36921;49.006;9.292;2023-04-06T13:19:31;8.77;;;6.07;;
50932;SDS011;36921;49.006;9.292;2023-04-06T13:21:56;7.47;;;5.65;;
50932;SDS011;36921;49.006;9.292;2023-04-06T13:24:22;7.57;;;5.88;;
50932;SDS011;36921;49.006;9.292;2023-04-06T13:26:48;8.57;;;5.97;;
50932;SDS011;36921;49.006;9.292;2023-04-06T13:29:13;9.43;;;6.00;;
50932;SDS011;36921;49.006;9.292;2023-04-06T13:31:39;8.95;;;6.03;;
50932;SDS011;36921;49.006;9.292;2023-04-06T13:34:04;9.63;;;6.35;;
50932;SDS011;36921;49.006;9.292;2023-04-06T13:36:30;9.65;;;6.22;;
50932;SDS011;36921;49.006;9.292;2023-04-06T13:38:56;11.70;;;6.50;;
50932;SDS011;36921;49.006;9.292;2023-04-06T13:41:22;12.45;;;6.93;;
50932;SDS011;36921;49.006;9.292;2023-04-06T13:43:50;11.13;;;6.77;;
50932;SDS011;36921;49.006;9.292;2023-04-06T13:46:16;11.63;;;7.05;;
50932;SDS011;36921;49.006;9.292;2023-04-06T13:48:42;12.05;;;6.60;;
50932;SDS011;36921;49.006;9.292;2023-04-06T13:51:08;10.98;;;6.53;;
50932;SDS011;36921;49.006;9.292;2023-04-06T13:53:37;10.75;;;6.50;;
50932;SDS011;36921;49.006;9.292;2023-04-06T13:56:03;9.05;;;6.22;;
50932;SDS011;36921;49.006;9.292;2023-04-06T13:58:28;14.35;;;6.93;;
50932;SDS011;36921;49.006;9.292;2023-04-06T14:00:54;11.20;;;6.85;;
50932;SDS011;36921;49.006;9.292;2023-04-06T14:03:20;12.60;;;6.80;;
50932;SDS011;36921;49.006;9.292;2023-04-06T14:05:46;10.07;;;6.65;;
50932;SDS011;36921;49.006;9.292;2023-04-06T14:08:11;12.10;;;6.55;;
50932;SDS011;36921;49.006;9.292;2023-04-06T14:10:39;11.40;;;6.60;;
50932;SDS011;36921;49.006;9.292;2023-04-06T14:13:06;11.18;;;6.85;;
50932;SDS011;36921;49.006;9.292;2023-04-06T14:15:31;10.15;;;6.43;;
50932;SDS011;36921;49.006;9.292;2023-04-06T14:17:56;9.50;;;5.85;;
50932;SDS011;36921;49.006;9.292;2023-04-06T14:20:22;9.23;;;6.53;;
50932;SDS011;36921;49.006;9.292;2023-04-06T14:22:47;11.20;;;6.82;;
50932;SDS011;36921;49.006;9.292;2023-04-06T14:25:14;15.00;;;6.80;;
50932;SDS011;36921;49.006;9.292;2023-04-06T14:27:40;11.63;;;7.15;;
50932;SDS011;36921;49.006;9.292;2023-04-06T14:30:07;10.32;;;6.43;;
50932;SDS011;36921;49.006;9.292;2023-04-06T14:32:33;12.55;;;6.93;;
50932;SDS011;36921;49.006;9.292;2023-04-06T14:34:58;11.38;;;6.25;;
50932;SDS011;36921;49.006;9.292;2023-04-06T14:37:23;11.90;;;6.20;;
50932;SDS011;36921;49.006;9.292;2023-04-06T14:39:49;12.70;;;6.55;;
50932;SDS011;36921;49.006;9.292;2023-04-06T14:42:14;10.40;;;6.57;;
50932;SDS011;36921;49.006;9.292;2023-04-06T14:44:40;11.45;;;6.72;;
50932;SDS011;36921;49.006;9.292;2023-04-06T14:47:08;10.80;;;5.80;;
50932;SDS011;36921;49.006;9.292;2023-04-06T14:49:34;12.07;;;6.25;;
50932;SDS011;36921;49.006;9.292;2023-04-06T14:51:59;11.68;;;6.68;;
50932;SDS011;36921;49.006;9.292;2023-04-06T14:54:25;10.20;;;6.38;;
50932;SDS011;36921;49.006;9.292;2023-04-06T14:56:50;9.43;;;5.70;;
50932;SDS011;36921;49.006;9.292;2023-04-06T14:59:15;10.00;;;6.70;;